Time;durP1;ratioP1;P1;durP2;ratioP2;P2;SDS_P1;SDS_P2;PMS_P1;PMS_P2;Temp;Humidity;BMP_temperature;BMP_pressure;BME280_temperature;BME280_humidity;BME280_pressure;Samples;Min_cycle;Max_cycle;Signal;HPM_P1;HPM_P2
2022/11/05 00:09:52;;;;;;;65.63;9.40;;;12.50;1.00;;;;;;5070717;28;20791;-71
2022/11/05 00:17:49;;;;;;;66.97;9.93;;;12.50;1.00;;;;;;5071249;28;20519;-72
2022/11/05 00:20:16;;;;;;;64.13;8.57;;;12.50;1.00;;;;;;5070840;28;20451;-71
2022/11/05 00:25:28;;;;;;;65.60;9.50;;;12.40;1.00;;;;;;5075361;28;20434;-71
2022/11/05 00:28:01;;;;;;;66.53;9.40;;;12.40;1.00;;;;;;5074862;28;20527;-71
2022/11/05 00:30:30;;;;;;;65.17;9.70;;;12.40;1.00;;;;;;5074231;28;20508;-71
2022/11/05 00:33:01;;;;;;;64.83;10.07;;;12.40;1.00;;;;;;5074946;28;20483;-71
2022/11/05 00:35:28;;;;;;;68.60;9.90;;;12.40;1.00;;;;;;5075045;28;20450;-72
2022/11/05 00:37:55;;;;;;;67.40;9.57;;;12.50;1.00;;;;;;5074863;28;20468;-73
2022/11/05 00:40:21;;;;;;;64.83;8.83;;;12.50;1.00;;;;;;5074097;28;20447;-71
2022/11/05 00:45:34;;;;;;;67.60;9.17;;;12.60;1.00;;;;;;5074880;28;20457;-71
2022/11/05 00:50:45;;;;;;;70.70;9.80;;;12.70;1.00;;;;;;5073604;28;20418;-71
2022/11/05 00:53:11;;;;;;;65.27;9.80;;;12.80;1.00;;;;;;5074368;28;20489;-71
2022/11/05 00:55:40;;;;;;;64.77;9.60;;;12.80;1.00;;;;;;5074696;28;20447;-72
2022/11/05 00:58:10;;;;;;;65.67;9.70;;;12.80;1.00;;;;;;5074428;28;20506;-71
2022/11/05 01:00:40;;;;;;;64.83;9.30;;;12.80;1.00;;;;;;5073925;28;20448;-72
2022/11/05 01:03:09;;;;;;;63.43;8.80;;;12.80;1.00;;;;;;5074309;28;20451;-72
2022/11/05 01:05:39;;;;;;;64.70;9.53;;;12.80;1.00;;;;;;5074300;28;20827;-71
2022/11/05 01:08:07;;;;;;;64.00;8.70;;;12.80;1.00;;;;;;5074509;28;20497;-71
2022/11/05 01:10:34;;;;;;;66.43;10.37;;;12.80;1.00;;;;;;5073473;28;20462;-71
2022/11/05 01:13:01;;;;;;;63.37;8.10;;;12.80;1.00;;;;;;5074283;28;20485;-71
2022/11/05 01:15:28;;;;;;;65.27;9.67;;;12.90;1.00;;;;;;5074199;28;20448;-71
2022/11/05 01:17:56;;;;;;;66.30;10.00;;;12.90;1.00;;;;;;5074463;28;20475;-73
2022/11/05 01:20:23;;;;;;;65.20;8.80;;;12.90;1.00;;;;;;5073480;28;20456;-71
2022/11/05 01:22:50;;;;;;;64.30;9.10;;;12.90;1.00;;;;;;5073861;28;20491;-71
2022/11/05 01:25:16;;;;;;;63.90;9.20;;;12.80;1.00;;;;;;5074055;28;20443;-71
2022/11/05 01:27:43;;;;;;;64.90;8.93;;;12.90;1.00;;;;;;5073819;28;20477;-71
2022/11/05 01:30:11;;;;;;;72.63;9.83;;;12.90;1.00;;;;;;5073142;28;20459;-71
2022/11/05 01:32:38;;;;;;;65.20;9.80;;;12.90;1.00;;;;;;5073484;28;20562;-71
2022/11/05 01:35:10;;;;;;;69.60;9.47;;;12.90;1.00;;;;;;5073769;28;20443;-71
2022/11/05 01:37:38;;;;;;;65.50;9.10;;;12.90;1.00;;;;;;5073812;28;20472;-71
2022/11/05 01:40:06;;;;;;;65.53;8.80;;;12.90;1.00;;;;;;5072823;28;20451;-71
2022/11/05 01:42:34;;;;;;;65.00;8.87;;;12.90;1.00;;;;;;5073717;28;20652;-71
2022/11/05 01:45:05;;;;;;;66.13;9.27;;;12.90;1.00;;;;;;5073603;28;20452;-71
2022/11/05 01:47:37;;;;;;;65.17;9.30;;;12.90;1.00;;;;;;5073376;28;21064;-72
2022/11/05 01:50:24;;;;;;;65.87;9.00;;;12.90;1.00;;;;;;5072720;28;20526;-71
2022/11/05 01:52:56;;;;;;;65.90;8.10;;;12.90;1.00;;;;;;5073373;28;20482;-71
2022/11/05 01:55:28;;;;;;;65.03;8.43;;;12.80;1.00;;;;;;5073310;28;20458;-71
2022/11/05 01:57:57;;;;;;;63.47;8.33;;;12.80;1.00;;;;;;5073356;28;20475;-73
2022/11/05 02:00:24;;;;;;;64.97;9.50;;;12.80;1.00;;;;;;5072705;28;20804;-71
2022/11/05 02:02:51;;;;;;;64.50;8.07;;;12.90;1.00;;;;;;5073277;28;20443;-71
2022/11/05 02:05:19;;;;;;;63.07;7.80;;;12.90;1.00;;;;;;5073276;28;20818;-71
2022/11/05 02:07:47;;;;;;;63.90;7.77;;;12.90;1.00;;;;;;5073045;28;20546;-71
2022/11/05 02:10:16;;;;;;;62.07;7.03;;;12.90;1.00;;;;;;5072175;28;20822;-71
2022/11/05 02:12:45;;;;;;;66.00;7.33;;;12.90;1.00;;;;;;5073111;28;20802;-71
2022/11/05 02:15:14;;;;;;;64.70;7.30;;;12.90;1.00;;;;;;5072924;28;20454;-71
2022/11/05 02:17:51;;;;;;;62.57;6.87;;;12.90;1.00;;;;;;5072980;28;20471;-72
2022/11/05 02:20:33;;;;;;;62.23;6.30;;;12.80;1.00;;;;;;5072100;28;20936;-71
2022/11/05 02:23:47;;;;;;;62.20;7.60;;;12.90;1.00;;;;;;5072833;28;20850;-71
2022/11/05 02:26:49;;;;;;;62.50;6.80;;;12.80;1.00;;;;;;5072698;28;20457;-71
2022/11/05 02:29:58;;;;;;;62.10;6.83;;;12.80;1.00;;;;;;5071887;28;20443;-71
2022/11/05 02:32:51;;;;;;;62.23;7.30;;;12.90;1.00;;;;;;5023865;28;20454;-71
2022/11/05 02:35:29;;;;;;;63.83;6.63;;;12.90;1.00;;;;;;5072318;28;20465;-71
2022/11/05 02:38:06;;;;;;;64.07;8.00;;;12.90;1.00;;;;;;5072430;28;20485;-71
2022/11/05 02:40:43;;;;;;;62.13;7.13;;;12.80;1.00;;;;;;5071915;28;20443;-71
2022/11/05 02:43:16;;;;;;;66.30;7.43;;;12.80;1.00;;;;;;5072503;28;20469;-71
2022/11/05 02:45:49;;;;;;;63.23;6.53;;;12.80;1.00;;;;;;5071578;28;20454;-71
2022/11/05 02:48:25;;;;;;;62.20;7.53;;;12.80;1.00;;;;;;5072350;28;20476;-71
2022/11/05 02:50:57;;;;;;;61.37;7.10;;;12.90;1.00;;;;;;5071913;28;20496;-71
2022/11/05 02:53:33;;;;;;;62.30;6.40;;;12.90;1.00;;;;;;5068635;28;21589;-71
2022/11/05 02:56:05;;;;;;;62.60;6.53;;;12.90;1.00;;;;;;5072262;28;20833;-72
2022/11/05 02:58:34;;;;;;;60.80;6.33;;;12.80;1.00;;;;;;5071705;28;20814;-71
2022/11/05 03:01:05;;;;;;;61.07;6.37;;;12.90;1.00;;;;;;5072224;28;20447;-71
2022/11/05 03:03:37;;;;;;;61.67;6.90;;;12.80;1.00;;;;;;5072250;28;20443;-71
2022/11/05 03:06:40;;;;;;;63.00;6.77;;;12.80;1.00;;;;;;5072340;28;20833;-72
2022/11/05 03:09:24;;;;;;;61.80;6.70;;;12.80;1.00;;;;;;5071331;28;20795;-71
2022/11/05 03:12:00;;;;;;;61.77;6.60;;;12.80;1.00;;;;;;5071955;28;20443;-71
2022/11/05 03:14:40;;;;;;;62.17;6.30;;;12.80;1.00;;;;;;5072104;28;20486;-71
2022/11/05 03:17:14;;;;;;;62.07;6.30;;;12.80;1.00;;;;;;5072046;28;20845;-71
2022/11/05 03:19:49;;;;;;;62.53;6.60;;;12.80;1.00;;;;;;5071337;28;20457;-71
2022/11/05 03:22:21;;;;;;;63.03;7.40;;;12.80;1.00;;;;;;5071782;28;20463;-71
2022/11/05 03:24:52;;;;;;;62.30;6.33;;;12.80;1.00;;;;;;5072087;28;20693;-71
2022/11/05 03:27:25;;;;;;;63.50;6.53;;;12.80;1.00;;;;;;5071944;28;20885;-71
2022/11/05 03:29:56;;;;;;;67.27;6.77;;;12.90;1.00;;;;;;5071172;28;20462;-71
2022/11/05 03:32:24;;;;;;;60.60;6.13;;;12.90;1.00;;;;;;5072284;28;20818;-72
2022/11/05 03:35:00;;;;;;;63.20;7.07;;;12.90;1.00;;;;;;5071677;28;20489;-72
2022/11/05 03:37:30;;;;;;;62.67;7.00;;;12.90;1.00;;;;;;5071879;28;20467;-72
2022/11/05 03:40:01;;;;;;;61.73;6.43;;;12.90;1.00;;;;;;5071022;28;20457;-72
2022/11/05 03:42:32;;;;;;;62.00;6.10;;;12.90;1.00;;;;;;5071676;28;20479;-72
2022/11/05 03:45:05;;;;;;;63.57;7.23;;;12.90;1.00;;;;;;5071919;28;20447;-71
2022/11/05 03:47:36;;;;;;;61.60;7.60;;;13.00;1.00;;;;;;5071808;28;20552;-71
2022/11/05 03:50:10;;;;;;;62.37;7.50;;;12.90;1.00;;;;;;5070804;28;20457;-72
2022/11/05 03:52:43;;;;;;;61.77;6.80;;;12.80;1.00;;;;;;5071626;28;20541;-72
2022/11/05 03:55:10;;;;;;;62.07;6.67;;;12.80;1.00;;;;;;5071998;28;20487;-71
2022/11/05 03:57:41;;;;;;;62.57;7.57;;;12.80;1.00;;;;;;5074323;28;20463;-72
2022/11/05 04:00:09;;;;;;;65.07;8.53;;;12.80;1.00;;;;;;5074855;28;20461;-71
2022/11/05 04:02:38;;;;;;;64.27;7.27;;;12.80;1.00;;;;;;5075909;28;20451;-71
2022/11/05 04:05:06;;;;;;;64.13;8.40;;;12.70;1.00;;;;;;5075538;28;20443;-70
2022/11/05 04:18:30;;;;;;;63.33;7.87;;;12.60;1.00;;;;;;5074826;28;20446;-71
2022/11/05 04:26:27;;;;;;;64.73;8.90;;;12.40;1.00;;;;;;5075085;28;20435;-72
2022/11/05 04:31:38;;;;;;;65.53;9.43;;;12.10;1.00;;;;;;5075036;28;20426;-73
2022/11/05 04:34:05;;;;;;;65.80;10.83;;;12.10;1.00;;;;;;5074927;28;20493;-73
2022/11/05 04:36:34;;;;;;;69.87;11.63;;;12.00;1.00;;;;;;5074703;28;20982;-73
2022/11/05 04:39:00;;;;;;;66.07;10.90;;;11.80;1.00;;;;;;5074056;28;20447;-73
2022/11/05 04:41:27;;;;;;;66.17;10.23;;;11.80;1.00;;;;;;5074630;28;20461;-73
2022/11/05 04:43:54;;;;;;;67.17;11.93;;;11.80;1.00;;;;;;5074668;28;20530;-73
2022/11/05 04:46:21;;;;;;;65.93;9.97;;;12.10;1.00;;;;;;5074727;28;20973;-73
2022/11/05 04:48:48;;;;;;;67.40;10.57;;;11.70;1.00;;;;;;5074265;28;20482;-73
2022/11/05 04:51:14;;;;;;;65.27;9.80;;;11.80;1.00;;;;;;5074582;28;20443;-75
2022/11/05 04:53:43;;;;;;;65.37;9.87;;;12.00;1.00;;;;;;5074501;28;20493;-73
2022/11/05 04:56:10;;;;;;;67.00;11.40;;;12.10;1.00;;;;;;5074436;28;20450;-73
2022/11/05 04:58:39;;;;;;;65.93;11.17;;;12.10;1.00;;;;;;5073781;28;20463;-73
2022/11/05 05:01:06;;;;;;;66.73;11.33;;;12.10;1.00;;;;;;5074505;28;20820;-73
2022/11/05 05:03:33;;;;;;;71.57;11.90;;;12.10;1.00;;;;;;5074453;28;20493;-75
2022/11/05 05:06:00;;;;;;;66.73;12.37;;;12.00;1.00;;;;;;5074520;28;20521;-73
2022/11/05 05:08:26;;;;;;;68.23;12.43;;;12.00;1.00;;;;;;5073206;28;20479;-72
2022/11/05 05:10:55;;;;;;;67.83;12.37;;;12.00;1.00;;;;;;5074133;28;20454;-73
2022/11/05 05:13:21;;;;;;;67.63;12.20;;;11.90;1.00;;;;;;5074050;28;20447;-73
2022/11/05 05:15:48;;;;;;;69.40;12.43;;;12.00;1.00;;;;;;5074249;28;20952;-73
2022/11/05 05:18:15;;;;;;;70.30;11.80;;;11.90;1.00;;;;;;5074013;28;20472;-73
2022/11/05 05:23:26;;;;;;;70.33;12.67;;;11.70;1.00;;;;;;5074160;28;20525;-73
2022/11/05 05:25:54;;;;;;;70.03;12.60;;;11.90;1.00;;;;;;5073920;28;20986;-72
2022/11/05 05:28:21;;;;;;;70.80;12.73;;;11.80;1.00;;;;;;5073858;28;20565;-73
2022/11/05 05:30:48;;;;;;;68.57;13.00;;;11.60;1.00;;;;;;5073203;28;20447;-73
2022/11/05 05:33:15;;;;;;;71.60;13.73;;;11.80;1.00;;;;;;5074479;28;20819;-73
2022/11/05 05:35:41;;;;;;;69.27;12.33;;;11.60;1.00;;;;;;5073565;28;20491;-72
2022/11/05 05:38:08;;;;;;;69.80;13.30;;;11.70;1.00;;;;;;5073523;28;20476;-73
2022/11/05 05:40:35;;;;;;;76.70;12.97;;;11.90;1.00;;;;;;5073256;28;20842;-73
2022/11/05 05:43:03;;;;;;;69.30;13.30;;;12.00;1.00;;;;;;5073735;28;20454;-74
2022/11/05 05:45:30;;;;;;;68.20;13.00;;;11.90;1.00;;;;;;5073637;28;20448;-75
2022/11/05 05:47:57;;;;;;;68.93;14.20;;;12.10;1.00;;;;;;5073447;28;20475;-73
2022/11/05 05:50:23;;;;;;;69.67;14.27;;;12.20;1.00;;;;;;5072806;28;20453;-73
2022/11/05 05:52:50;;;;;;;70.67;15.03;;;12.40;1.00;;;;;;5073567;28;20465;-73
2022/11/05 05:55:17;;;;;;;70.90;14.73;;;12.40;1.00;;;;;;5073412;28;20496;-73
2022/11/05 05:57:44;;;;;;;70.73;13.70;;;12.20;1.00;;;;;;5073220;28;20475;-73
2022/11/05 06:00:14;;;;;;;70.33;14.70;;;12.30;1.00;;;;;;5073004;28;20826;-73
2022/11/05 06:02:40;;;;;;;70.27;14.80;;;12.40;1.00;;;;;;5073129;28;20444;-74
2022/11/05 06:05:08;;;;;;;70.80;14.33;;;12.30;1.00;;;;;;5073448;28;20956;-73
2022/11/05 06:07:35;;;;;;;68.37;13.40;;;12.40;1.00;;;;;;5073395;28;20471;-73
2022/11/05 06:10:01;;;;;;;69.53;14.23;;;12.30;1.00;;;;;;5072974;28;20454;-73
2022/11/05 06:12:29;;;;;;;69.80;13.90;;;12.40;1.00;;;;;;5073291;28;20466;-72
2022/11/05 06:14:56;;;;;;;70.37;14.53;;;12.50;1.00;;;;;;5073121;28;20484;-73
2022/11/05 06:17:24;;;;;;;69.20;13.43;;;12.50;1.00;;;;;;5072827;28;20570;-75
2022/11/05 06:19:51;;;;;;;69.90;14.40;;;12.50;1.00;;;;;;5072069;28;20466;-74
2022/11/05 06:22:18;;;;;;;69.20;13.90;;;12.30;1.00;;;;;;5072936;28;20459;-73
2022/11/05 06:24:44;;;;;;;73.77;15.07;;;12.10;1.00;;;;;;5073014;28;20454;-72
2022/11/05 06:27:11;;;;;;;71.03;13.90;;;12.00;1.00;;;;;;5072627;28;20478;-73
2022/11/05 06:29:38;;;;;;;71.47;15.17;;;11.60;1.00;;;;;;5071984;28;20887;-73
2022/11/05 06:32:05;;;;;;;74.27;13.77;;;11.40;1.00;;;;;;5072904;28;20534;-73
2022/11/05 06:34:35;;;;;;;73.03;15.67;;;11.50;1.00;;;;;;5072648;28;20495;-72
2022/11/05 06:37:02;;;;;;;72.60;15.50;;;11.50;1.00;;;;;;5072633;28;20847;-72
2022/11/05 06:39:29;;;;;;;72.90;15.63;;;11.70;1.00;;;;;;5071885;28;20455;-73
2022/11/05 06:41:55;;;;;;;72.30;15.67;;;11.50;1.00;;;;;;5072598;28;20966;-73
2022/11/05 06:44:22;;;;;;;71.10;15.20;;;11.70;1.00;;;;;;5072612;28;20793;-73
2022/11/05 06:46:49;;;;;;;73.20;15.70;;;11.90;1.00;;;;;;5072545;28;20450;-72
2022/11/05 06:49:16;;;;;;;71.53;15.47;;;11.80;1.00;;;;;;5071762;28;20458;-74
2022/11/05 06:51:44;;;;;;;74.60;17.10;;;12.00;1.00;;;;;;5072352;28;20462;-72
2022/11/05 06:54:11;;;;;;;73.60;16.43;;;11.90;1.00;;;;;;5072281;28;20487;-73
2022/11/05 06:56:38;;;;;;;73.83;16.40;;;12.00;1.00;;;;;;5072215;28;20455;-74
2022/11/05 06:59:05;;;;;;;74.97;18.03;;;12.00;1.00;;;;;;5071800;28;20962;-73
2022/11/05 07:01:32;;;;;;;74.43;16.93;;;12.00;1.00;;;;;;5072192;28;20978;-72
2022/11/05 07:03:58;;;;;;;73.00;15.63;;;11.90;1.00;;;;;;5072155;28;21003;-73
2022/11/05 07:06:26;;;;;;;76.33;18.73;;;12.00;1.00;;;;;;5072224;28;20458;-73
2022/11/05 07:08:54;;;;;;;74.23;17.43;;;12.00;1.00;;;;;;5071338;28;20847;-73
2022/11/05 07:11:21;;;;;;;72.80;17.63;;;12.20;1.00;;;;;;5071914;28;20447;-73
2022/11/05 07:13:48;;;;;;;72.37;15.80;;;12.20;1.00;;;;;;5071857;28;20467;-73
2022/11/05 07:16:14;;;;;;;72.37;16.17;;;12.30;1.00;;;;;;5072124;28;20860;-74
2022/11/05 07:18:41;;;;;;;74.00;16.67;;;12.30;1.00;;;;;;5071353;28;20472;-73
2022/11/05 07:21:08;;;;;;;75.07;16.67;;;12.30;1.00;;;;;;5071844;28;20450;-72
2022/11/05 07:23:35;;;;;;;72.70;15.90;;;12.30;1.00;;;;;;5071984;28;20546;-73
2022/11/05 07:26:03;;;;;;;75.17;17.37;;;12.50;1.00;;;;;;5071710;28;20448;-73
2022/11/05 07:28:30;;;;;;;80.40;18.20;;;12.50;1.00;;;;;;5071697;28;20470;-73
2022/11/05 07:30:58;;;;;;;76.73;17.90;;;12.50;1.00;;;;;;5071244;28;20453;-73
2022/11/05 07:33:25;;;;;;;76.13;17.97;;;12.30;1.00;;;;;;5071917;28;20454;-74
2022/11/05 07:35:52;;;;;;;75.70;16.93;;;12.40;1.00;;;;;;5071742;28;20487;-73
2022/11/05 07:38:18;;;;;;;75.00;17.23;;;12.50;1.00;;;;;;5071499;28;20467;-73
2022/11/05 07:40:45;;;;;;;76.10;19.07;;;12.50;1.00;;;;;;5070927;28;20458;-72
2022/11/05 07:43:13;;;;;;;78.37;17.70;;;12.60;1.00;;;;;;5071816;28;20443;-73
2022/11/05 07:45:40;;;;;;;75.57;17.57;;;12.90;1.00;;;;;;5071796;28;20444;-72
2022/11/05 07:48:07;;;;;;;77.07;18.53;;;12.60;1.00;;;;;;5071513;28;21013;-73
2022/11/05 07:50:36;;;;;;;75.37;17.60;;;12.50;1.00;;;;;;5071014;28;20451;-73
2022/11/05 07:53:05;;;;;;;76.40;18.13;;;12.70;1.00;;;;;;5072011;28;20462;-72
2022/11/05 07:55:32;;;;;;;77.80;17.47;;;12.60;1.00;;;;;;5071710;28;20487;-73
2022/11/05 07:57:59;;;;;;;74.97;17.53;;;12.70;1.00;;;;;;5071610;28;20550;-72
2022/11/05 08:00:28;;;;;;;74.63;16.07;;;12.40;1.00;;;;;;5070963;28;20447;-73
2022/11/05 08:02:59;;;;;;;74.13;17.20;;;12.00;1.00;;;;;;5071424;28;20448;-72
2022/11/05 08:05:26;;;;;;;72.80;16.97;;;11.90;1.00;;;;;;5071345;28;20440;-72
2022/11/05 08:07:54;;;;;;;74.03;16.23;;;11.90;1.00;;;;;;5071601;28;20467;-72
2022/11/05 08:10:21;;;;;;;73.00;15.30;;;11.50;1.00;;;;;;5070877;28;20462;-72
2022/11/05 08:12:48;;;;;;;78.17;17.80;;;11.30;1.00;;;;;;5071496;28;20534;-73
2022/11/05 08:15:15;;;;;;;72.97;15.87;;;11.30;1.00;;;;;;5071464;28;20478;-72
2022/11/05 08:17:43;;;;;;;76.13;16.87;;;11.20;1.00;;;;;;5071256;28;20474;-72
2022/11/05 08:20:11;;;;;;;75.63;17.57;;;11.50;1.00;;;;;;5070522;28;20531;-71
2022/11/05 08:22:41;;;;;;;74.47;15.67;;;11.60;1.00;;;;;;5071258;28;20955;-71
2022/11/05 08:25:08;;;;;;;75.70;16.40;;;11.80;1.00;;;;;;5071306;28;20452;-72
2022/11/05 08:27:35;;;;;;;77.60;17.50;;;11.50;1.00;;;;;;5071132;28;21022;-72
2022/11/05 08:30:02;;;;;;;74.17;16.13;;;11.60;1.00;;;;;;5070551;28;20490;-71
2022/11/05 08:32:28;;;;;;;73.70;16.00;;;11.40;1.00;;;;;;5071153;28;20477;-72
2022/11/05 08:34:57;;;;;;;71.20;15.87;;;11.60;1.00;;;;;;5071025;28;20483;-71
2022/11/05 08:37:23;;;;;;;75.60;15.90;;;11.50;1.00;;;;;;5071393;28;20476;-72
2022/11/05 08:39:50;;;;;;;77.30;16.80;;;11.20;1.00;;;;;;5070538;28;20497;-71
2022/11/05 08:42:17;;;;;;;76.70;17.20;;;10.90;1.00;;;;;;5071467;28;20443;-71
2022/11/05 08:44:44;;;;;;;71.10;13.80;;;11.10;1.00;;;;;;5074028;28;20962;-71
2022/11/05 08:47:11;;;;;;;70.60;13.90;;;10.90;1.00;;;;;;5074518;28;20475;-73
2022/11/05 08:49:37;;;;;;;70.53;13.23;;;10.70;1.00;;;;;;5074095;28;20449;-72
2022/11/05 08:52:06;;;;;;;72.00;13.77;;;10.50;1.00;;;;;;5074631;28;20457;-72
2022/11/05 08:54:32;;;;;;;68.37;11.80;;;10.70;1.00;;;;;;5074552;28;20478;-71
2022/11/05 08:56:59;;;;;;;68.17;11.40;;;10.70;1.00;;;;;;5074490;28;20467;-72
2022/11/05 08:59:28;;;;;;;67.00;11.20;;;10.40;1.00;;;;;;5073866;28;20542;-71
2022/11/05 09:01:55;;;;;;;67.93;11.60;;;10.30;1.00;;;;;;5074328;28;20803;-71
2022/11/05 09:04:22;;;;;;;66.70;9.83;;;10.30;1.00;;;;;;5074631;28;20451;-72
2022/11/05 09:06:49;;;;;;;64.87;9.40;;;10.50;1.00;;;;;;5074455;28;20525;-71
2022/11/05 09:09:17;;;;;;;69.83;10.00;;;10.50;1.00;;;;;;5073497;28;20449;-71
2022/11/05 09:11:44;;;;;;;64.70;9.23;;;10.30;1.00;;;;;;5074268;28;20443;-72
2022/11/05 09:14:10;;;;;;;67.00;10.80;;;10.50;1.00;;;;;;5074189;28;20449;-72
2022/11/05 09:16:37;;;;;;;67.27;11.23;;;10.50;1.00;;;;;;5074258;28;20925;-71
2022/11/05 09:19:04;;;;;;;65.63;10.07;;;10.40;1.00;;;;;;5073557;28;20447;-72
2022/11/05 09:21:31;;;;;;;68.53;9.67;;;10.40;1.00;;;;;;5074225;28;20454;-72
2022/11/05 09:23:58;;;;;;;66.53;10.47;;;10.30;1.00;;;;;;5074195;28;20555;-72
2022/11/05 09:26:26;;;;;;;66.70;9.70;;;10.40;1.00;;;;;;5074456;28;20453;-71
2022/11/05 09:28:53;;;;;;;67.03;10.77;;;10.60;1.00;;;;;;5072962;28;20475;-72
2022/11/05 09:31:20;;;;;;;65.90;10.10;;;10.40;1.00;;;;;;5074032;28;20453;-74
2022/11/05 09:33:47;;;;;;;64.67;8.87;;;10.30;1.00;;;;;;5073780;28;20454;-73
2022/11/05 09:36:15;;;;;;;65.07;9.27;;;10.40;1.00;;;;;;5073841;28;20493;-72
2022/11/05 09:38:41;;;;;;;63.07;8.70;;;10.80;1.00;;;;;;5072985;28;20831;-72
2022/11/05 09:41:14;;;;;;;64.20;8.57;;;11.10;1.00;;;;;;5073724;28;20456;-73
2022/11/05 09:43:45;;;;;;;64.87;10.70;;;11.10;1.00;;;;;;5073597;28;20459;-73
2022/11/05 09:46:19;;;;;;;64.80;9.50;;;11.20;1.00;;;;;;5073745;28;20457;-73
2022/11/05 09:48:49;;;;;;;65.87;10.10;;;11.30;1.00;;;;;;5072847;28;20479;-73
2022/11/05 09:51:18;;;;;;;65.83;9.70;;;11.60;1.00;;;;;;5073857;28;20443;-73
2022/11/05 09:53:46;;;;;;;64.30;8.37;;;11.40;1.00;;;;;;5073148;28;20483;-73
2022/11/05 09:56:23;;;;;;;65.30;9.87;;;11.60;1.00;;;;;;5073194;28;20498;-73
2022/11/05 09:58:55;;;;;;;64.07;8.97;;;11.90;1.00;;;;;;5072584;28;20474;-73
2022/11/05 10:01:25;;;;;;;65.07;9.70;;;11.90;1.00;;;;;;5073350;28;20459;-72
2022/11/05 10:03:58;;;;;;;65.93;10.83;;;11.60;1.00;;;;;;5073319;28;20830;-73
2022/11/05 10:06:26;;;;;;;64.60;8.97;;;11.60;1.00;;;;;;5073161;28;20458;-73
2022/11/05 10:09:01;;;;;;;67.57;10.50;;;11.80;1.00;;;;;;5072502;28;20814;-74
2022/11/05 10:11:33;;;;;;;67.97;9.40;;;11.60;1.00;;;;;;5073383;28;20457;-73
2022/11/05 10:14:10;;;;;;;67.60;10.30;;;11.60;1.00;;;;;;5073139;28;20817;-73
2022/11/05 10:16:40;;;;;;;64.50;8.83;;;12.00;1.00;;;;;;5072904;28;20569;-73
2022/11/05 10:19:12;;;;;;;66.57;9.07;;;11.80;1.00;;;;;;5072111;28;20459;-74
2022/11/05 10:21:39;;;;;;;66.37;9.57;;;11.80;1.00;;;;;;5073123;28;20447;-73
2022/11/05 10:24:13;;;;;;;63.90;8.70;;;11.90;1.00;;;;;;5072727;28;20459;-73
2022/11/05 10:26:40;;;;;;;66.53;10.27;;;12.00;1.00;;;;;;5072815;28;20479;-73
2022/11/05 10:29:11;;;;;;;63.70;8.83;;;12.20;1.00;;;;;;5071942;28;20535;-73
2022/11/05 10:31:38;;;;;;;69.80;9.57;;;12.10;1.00;;;;;;5072997;28;20454;-73
2022/11/05 10:34:07;;;;;;;62.90;8.53;;;11.90;1.00;;;;;;5072643;28;20956;-72
2022/11/05 10:36:36;;;;;;;65.07;9.90;;;11.90;1.00;;;;;;5072612;28;20569;-73
2022/11/05 10:39:10;;;;;;;70.23;10.90;;;12.00;1.00;;;;;;5070992;28;20940;-73
2022/11/05 10:41:51;;;;;;;65.37;9.93;;;11.90;1.00;;;;;;5072789;28;20813;-73
2022/11/05 10:44:31;;;;;;;66.30;9.93;;;11.60;1.00;;;;;;5072464;28;20944;-73
2022/11/05 10:47:23;;;;;;;68.60;9.97;;;11.60;1.00;;;;;;5072412;28;20475;-72
2022/11/05 10:49:57;;;;;;;68.80;9.70;;;11.60;1.00;;;;;;5071925;28;20443;-72
2022/11/05 10:52:26;;;;;;;66.00;10.73;;;12.10;1.00;;;;;;5071858;28;20455;-72
2022/11/05 10:54:58;;;;;;;68.47;11.07;;;12.30;1.00;;;;;;5072166;28;20448;-72
2022/11/05 10:57:34;;;;;;;68.10;11.33;;;12.60;1.00;;;;;;5072272;28;20555;-73
2022/11/05 11:00:28;;;;;;;66.50;9.77;;;12.60;1.00;;;;;;5071601;28;20529;-72
2022/11/05 11:02:57;;;;;;;64.57;9.03;;;12.20;1.00;;;;;;5069659;28;20459;-74
2022/11/05 11:05:29;;;;;;;65.20;9.40;;;12.00;1.00;;;;;;5071847;28;20944;-73
2022/11/05 11:08:03;;;;;;;66.90;10.70;;;12.40;1.00;;;;;;5071849;28;20459;-73
2022/11/05 11:10:35;;;;;;;67.10;10.87;;;12.60;1.00;;;;;;5071397;28;20454;-73
2022/11/05 11:13:02;;;;;;;66.20;10.40;;;12.70;1.00;;;;;;5071907;28;20966;-73
2022/11/05 11:15:33;;;;;;;68.43;11.50;;;12.50;1.00;;;;;;5071937;28;20998;-73
2022/11/05 11:18:25;;;;;;;66.83;11.37;;;12.60;1.00;;;;;;5071864;28;20514;-73
2022/11/05 11:20:51;;;;;;;65.07;10.27;;;12.80;1.00;;;;;;5071299;28;20462;-74
2022/11/05 11:23:18;;;;;;;67.23;10.30;;;12.70;1.00;;;;;;5071703;28;20912;-73
2022/11/05 11:25:50;;;;;;;67.37;10.30;;;12.80;1.00;;;;;;5071796;28;20955;-73
2022/11/05 11:28:22;;;;;;;67.60;10.07;;;12.90;1.00;;;;;;5071677;28;20976;-73
2022/11/05 11:31:03;;;;;;;66.77;10.13;;;13.00;1.00;;;;;;5071318;28;20459;-74
2022/11/05 11:33:31;;;;;;;65.00;9.90;;;12.80;1.00;;;;;;5071851;28;20820;-73
2022/11/05 11:35:58;;;;;;;65.93;10.13;;;12.70;1.00;;;;;;5071852;28;20483;-73
2022/11/05 11:38:29;;;;;;;66.83;10.03;;;12.90;1.00;;;;;;5071531;28;20471;-74
2022/11/05 11:41:03;;;;;;;67.27;11.20;;;12.90;1.00;;;;;;5071617;28;20465;-73
2022/11/05 11:43:33;;;;;;;69.47;11.07;;;12.60;1.00;;;;;;5071802;28;20485;-73
2022/11/05 11:46:03;;;;;;;67.37;10.17;;;12.80;1.00;;;;;;5071738;28;20447;-72
2022/11/05 11:48:33;;;;;;;71.90;12.33;;;13.00;1.00;;;;;;5071099;28;20562;-73
2022/11/05 11:51:16;;;;;;;70.67;11.80;;;12.80;1.00;;;;;;5071610;28;20475;-72
2022/11/05 11:53:43;;;;;;;66.50;10.60;;;13.20;1.00;;;;;;5071726;28;20448;-72
2022/11/05 11:56:16;;;;;;;69.53;11.47;;;13.70;1.00;;;;;;5071353;28;20487;-72
2022/11/05 11:58:45;;;;;;;68.20;11.30;;;14.00;1.00;;;;;;5071329;28;20470;-71
2022/11/05 12:01:51;;;;;;;66.07;9.67;;;14.30;1.00;;;;;;5071545;28;20551;-72
2022/11/05 12:05:03;;;;;;;67.37;9.63;;;14.00;1.00;;;;;;5068936;28;20462;-71
2022/11/05 12:07:44;;;;;;;66.40;9.67;;;14.00;1.00;;;;;;5009489;28;20917;-72
2022/11/05 12:10:23;;;;;;;65.40;9.37;;;14.00;1.00;;;;;;5068869;28;20455;-72
2022/11/05 12:13:00;;;;;;;69.70;10.90;;;14.30;1.00;;;;;;5071430;28;20447;-71
2022/11/05 12:15:38;;;;;;;63.80;9.00;;;14.50;1.00;;;;;;5071289;28;20465;-72
2022/11/05 12:18:07;;;;;;;64.80;9.13;;;14.10;1.00;;;;;;5073523;28;20470;-71
2022/11/05 12:20:50;;;;;;;64.50;9.10;;;14.40;1.00;;;;;;5074724;28;20447;-71
2022/11/05 12:23:41;;;;;;;66.03;10.13;;;14.90;1.00;;;;;;5075185;28;20849;-72
2022/11/05 12:26:18;;;;;;;64.03;9.80;;;15.20;1.00;;;;;;5075334;28;20811;-71
2022/11/05 12:29:02;;;;;;;64.53;8.87;;;15.50;1.00;;;;;;5065309;28;20486;-72
2022/11/05 12:31:37;;;;;;;64.50;9.23;;;15.60;1.00;;;;;;5054911;28;20448;-72
2022/11/05 12:34:19;;;;;;;66.20;8.70;;;15.60;1.00;;;;;;5054940;28;20837;-72
2022/11/05 12:37:12;;;;;;;63.20;8.87;;;15.80;1.00;;;;;;5054960;28;20488;-72
2022/11/05 12:39:50;;;;;;;66.37;9.50;;;15.90;1.00;;;;;;5051402;28;20986;-72
2022/11/05 12:42:27;;;;;;;62.47;8.50;;;15.90;1.00;;;;;;5055113;28;20448;-72
2022/11/05 12:45:01;;;;;;;67.53;9.87;;;15.90;1.00;;;;;;5054667;28;20474;-72
2022/11/05 12:47:47;;;;;;;64.90;9.80;;;15.20;1.00;;;;;;5054741;28;20474;-72
2022/11/05 12:50:22;;;;;;;64.00;8.93;;;15.40;1.00;;;;;;5053867;28;20429;-72
2022/11/05 12:53:26;;;;;;;63.37;8.30;;;15.00;1.00;;;;;;5054900;28;20439;-71
2022/11/05 12:55:54;;;;;;;64.90;8.83;;;14.90;1.00;;;;;;5054373;28;20851;-71
2022/11/05 12:58:25;;;;;;;65.20;8.50;;;15.10;1.00;;;;;;5054406;28;20494;-71
2022/11/05 13:00:57;;;;;;;64.67;8.40;;;14.90;1.00;;;;;;5053667;28;20456;-71
2022/11/05 13:03:36;;;;;;;63.90;9.00;;;14.60;1.00;;;;;;5054065;28;20478;-72
2022/11/05 13:06:07;;;;;;;64.43;8.73;;;14.70;1.00;;;;;;5054449;28;20501;-71
2022/11/05 13:08:39;;;;;;;64.03;8.60;;;14.80;1.00;;;;;;5053512;28;20562;-72
2022/11/05 13:11:14;;;;;;;65.60;8.87;;;15.10;1.00;;;;;;5054140;28;20543;-72
2022/11/05 13:13:46;;;;;;;64.60;8.70;;;15.50;1.00;;;;;;5053979;28;20451;-71
2022/11/05 13:16:19;;;;;;;63.87;8.33;;;15.50;1.00;;;;;;5054163;28;20491;-71
2022/11/05 13:18:50;;;;;;;64.73;8.70;;;15.50;1.00;;;;;;5053380;28;20468;-72
2022/11/05 13:21:19;;;;;;;63.63;8.50;;;15.40;1.00;;;;;;5054058;28;20457;-72
2022/11/05 13:23:53;;;;;;;65.00;9.60;;;15.20;1.00;;;;;;5051865;28;20582;-71
2022/11/05 13:26:26;;;;;;;63.70;7.97;;;15.00;1.00;;;;;;5073902;28;20444;-72
2022/11/05 13:28:59;;;;;;;64.00;7.93;;;14.70;1.00;;;;;;5072369;28;20475;-71
2022/11/05 13:31:32;;;;;;;69.90;13.00;;;14.90;1.00;;;;;;5073909;28;20447;-71
2022/11/05 13:34:04;;;;;;;63.40;8.13;;;15.00;1.00;;;;;;5073735;28;20451;-72
2022/11/05 13:39:23;;;;;;;68.40;10.90;;;13.90;99.90;;;;;;5072763;28;20427;-71
2022/11/05 13:42:28;;;;;;;62.60;8.10;;;14.10;1.00;;;;;;5073696;28;20458;-71
2022/11/05 13:45:38;;;;;;;67.17;9.93;;;14.10;1.00;;;;;;5031574;28;20889;-72
2022/11/05 13:48:29;;;;;;;82.40;20.20;;;14.30;1.00;;;;;;5073226;28;20476;-72
2022/11/05 13:51:23;;;;;;;87.17;25.30;;;14.10;1.00;;;;;;5072890;28;20976;-72